createdAt,value
2018-03-07T00:01:23.776Z,4.94
2018-03-07T00:03:53.808Z,4.98
2018-03-07T00:06:24.626Z,5.14
2018-03-07T00:08:56.500Z,5.08
2018-03-07T00:11:26.032Z,5.21
2018-03-07T00:13:56.596Z,5.12
2018-03-07T00:16:26.526Z,5.22
2018-03-07T00:18:58.065Z,5.23
2018-03-07T00:21:28.988Z,5.37
2018-03-07T00:23:58.798Z,5.27
2018-03-07T00:26:29.660Z,5.31
2018-03-07T00:29:00.290Z,5.29
2018-03-07T00:31:30.076Z,5.02
2018-03-07T00:34:00.451Z,5.01
2018-03-07T00:36:30.552Z,5.05
2018-03-07T00:39:01.372Z,5.20
2018-03-07T00:41:31.600Z,5.08
2018-03-07T00:44:07.145Z,5.21
2018-03-07T00:46:37.605Z,5.16
2018-03-07T00:49:07.820Z,5.06
2018-03-07T00:51:38.240Z,5.10
2018-03-07T00:54:08.253Z,5.26
2018-03-07T00:56:38.109Z,5.27
2018-03-07T00:59:08.503Z,5.27
2018-03-07T01:01:38.396Z,5.09
2018-03-07T01:04:09.609Z,5.08
2018-03-07T01:06:39.618Z,5.15
2018-03-07T01:09:09.327Z,5.17
2018-03-07T01:11:39.352Z,5.26
2018-03-07T01:14:09.070Z,5.01
2018-03-07T01:16:38.862Z,4.92
2018-03-07T01:19:10.056Z,4.97
2018-03-07T01:21:40.747Z,5.13
2018-03-07T01:24:10.285Z,5.11
2018-03-07T01:26:40.204Z,5.07
2018-03-07T01:29:10.302Z,5.09
2018-03-07T01:31:40.029Z,4.96
2018-03-07T01:34:10.211Z,5.00
2018-03-07T01:36:40.234Z,5.01
2018-03-07T01:39:09.918Z,4.97
2018-03-07T01:41:39.549Z,4.89
2018-03-07T01:44:09.982Z,5.02
2018-03-07T01:46:39.669Z,4.99
2018-03-07T01:49:09.914Z,5.00
2018-03-07T01:51:49.628Z,4.99
2018-03-07T01:57:34.492Z,4.61
2018-03-07T02:00:04.424Z,4.86
2018-03-07T02:02:34.722Z,4.97
2018-03-07T02:05:08.443Z,5.00
2018-03-07T02:07:38.395Z,5.05
2018-03-07T02:10:11.098Z,5.05
2018-03-07T02:12:41.972Z,5.06
2018-03-07T02:15:12.792Z,5.10
2018-03-07T02:17:42.610Z,5.10
2018-03-07T02:20:14.533Z,5.13
2018-03-07T02:22:44.781Z,5.07
2018-03-07T02:25:15.968Z,5.11
2018-03-07T02:27:46.803Z,4.94
2018-03-07T02:30:17.885Z,4.91
2018-03-07T02:32:48.596Z,5.04
2018-03-07T02:35:18.552Z,5.04
2018-03-07T02:37:51.309Z,5.00
2018-03-07T02:40:21.641Z,4.97
2018-03-07T02:42:52.001Z,4.82
2018-03-07T02:45:22.944Z,4.89
2018-03-07T02:47:54.617Z,4.85
2018-03-07T02:50:24.644Z,4.83
2018-03-07T02:52:54.359Z,4.84
2018-03-07T02:55:24.253Z,4.86
2018-03-07T02:57:54.207Z,4.63
2018-03-07T03:00:24.961Z,4.78
2018-03-07T03:02:55.313Z,4.78
2018-03-07T03:05:25.243Z,4.67
2018-03-07T03:07:55.262Z,4.41
2018-03-07T03:10:26.063Z,4.50
2018-03-07T03:12:56.950Z,4.53
2018-03-07T03:15:26.893Z,4.46
2018-03-07T03:17:57.606Z,4.43
2018-03-07T03:20:27.779Z,4.29
2018-03-07T03:22:58.920Z,4.35
2018-03-07T03:25:28.774Z,4.47
2018-03-07T03:27:59.982Z,4.45
2018-03-07T03:30:29.687Z,4.26
2018-03-07T03:32:59.547Z,4.24
2018-03-07T03:35:29.969Z,4.36
2018-03-07T03:38:01.139Z,4.37
2018-03-07T03:40:33.399Z,4.37
2018-03-07T03:43:05.068Z,4.35
2018-03-07T03:45:35.780Z,4.35
2018-03-07T03:48:06.121Z,4.16
2018-03-07T03:50:36.445Z,4.26
2018-03-07T03:53:06.079Z,4.30
2018-03-07T03:55:36.164Z,4.21
2018-03-07T03:58:07.105Z,4.10
2018-03-07T04:00:37.061Z,4.27
2018-03-07T04:03:07.445Z,4.12
2018-03-07T04:05:38.683Z,4.20
2018-03-07T04:08:09.659Z,4.13
2018-03-07T04:10:39.980Z,4.22
2018-03-07T04:13:09.719Z,4.22
2018-03-07T04:15:39.578Z,4.30
2018-03-07T04:18:09.705Z,4.31
2018-03-07T04:20:39.442Z,4.32
2018-03-07T04:23:09.043Z,4.35
2018-03-07T04:25:39.015Z,4.30
2018-03-07T04:28:10.338Z,4.33
2018-03-07T04:30:39.877Z,4.17
2018-03-07T04:33:10.047Z,4.20
2018-03-07T04:35:39.604Z,4.43
2018-03-07T04:38:09.926Z,4.19
2018-03-07T04:40:40.025Z,4.18
2018-03-07T04:43:09.919Z,4.10
2018-03-07T04:45:39.818Z,4.02
2018-03-07T04:48:09.409Z,4.15
2018-03-07T04:50:39.038Z,3.85
2018-03-07T04:53:08.948Z,4.17
2018-03-07T04:55:39.046Z,3.51
2018-03-07T04:58:08.833Z,4.09
2018-03-07T05:00:39.896Z,4.10
2018-03-07T05:03:10.629Z,4.10
2018-03-07T05:05:40.545Z,4.14
2018-03-07T05:08:10.514Z,4.22
2018-03-07T05:10:40.803Z,4.33
2018-03-07T05:13:10.431Z,4.39
2018-03-07T05:15:40.322Z,4.53
2018-03-07T05:18:10.192Z,4.81
2018-03-07T05:20:40.178Z,4.76
2018-03-07T05:23:10.697Z,4.76
2018-03-07T05:25:40.814Z,4.96
2018-03-07T05:28:11.240Z,4.82
2018-03-07T05:30:41.005Z,4.96
2018-03-07T05:33:11.200Z,4.92
2018-03-07T05:35:40.989Z,5.12
2018-03-07T05:38:11.081Z,4.78
2018-03-07T05:40:41.036Z,4.82
2018-03-07T05:43:10.975Z,4.94
2018-03-07T05:45:40.787Z,5.12
2018-03-07T05:48:11.586Z,4.87
2018-03-07T05:50:41.695Z,4.92
2018-03-07T05:53:12.021Z,5.17
2018-03-07T05:55:44.388Z,5.01
2018-03-07T05:58:14.812Z,5.03
2018-03-07T06:00:44.392Z,5.26
2018-03-07T06:03:14.467Z,5.31
2018-03-07T06:05:44.828Z,5.34
2018-03-07T06:08:17.363Z,5.21
2018-03-07T06:10:48.816Z,5.12
2018-03-07T06:13:19.173Z,5.07
2018-03-07T06:15:48.881Z,5.14
2018-03-07T06:18:18.892Z,5.22
2018-03-07T06:20:48.533Z,5.24
2018-03-07T06:23:18.149Z,5.37
2018-03-07T06:25:48.260Z,5.22
2018-03-07T06:28:18.766Z,5.28
2018-03-07T06:30:49.216Z,5.41
2018-03-07T06:33:19.769Z,5.36
2018-03-07T06:35:49.204Z,5.22
2018-03-07T06:38:18.741Z,5.29
2018-03-07T06:40:49.776Z,5.37
2018-03-07T06:43:19.606Z,5.50
2018-03-07T06:45:49.388Z,5.31
2018-03-07T06:48:19.132Z,5.38
2018-03-07T06:50:50.240Z,5.35
2018-03-07T06:53:20.153Z,5.14
2018-03-07T06:55:50.533Z,5.19
2018-03-07T06:58:20.692Z,5.50
2018-03-07T07:00:50.102Z,5.68
2018-03-07T07:03:20.380Z,5.69
2018-03-07T07:05:49.951Z,5.27
2018-03-07T07:08:19.504Z,5.58
2018-03-07T07:10:48.974Z,5.62
2018-03-07T07:13:19.807Z,5.81
2018-03-07T07:15:50.637Z,6.00
2018-03-07T07:18:21.752Z,6.32
2018-03-07T07:20:51.834Z,6.16
2018-03-07T07:23:25.445Z,6.43
2018-03-07T07:25:54.970Z,6.32
2018-03-07T07:28:24.845Z,6.60
2018-03-07T07:30:54.535Z,6.62
2018-03-07T07:33:24.974Z,6.73
2018-03-07T07:35:54.747Z,6.85
2018-03-07T07:38:28.233Z,6.75
2018-03-07T07:40:58.310Z,6.59
2018-03-07T07:43:30.341Z,6.65
2018-03-07T07:46:00.439Z,6.89
2018-03-07T07:48:30.478Z,6.90
2018-03-07T07:51:00.152Z,7.24
2018-03-07T07:53:30.558Z,7.43
2018-03-07T07:56:01.986Z,7.63
2018-03-07T07:58:32.048Z,7.81
2018-03-07T08:01:02.502Z,7.98
2018-03-07T08:03:32.026Z,7.90
2018-03-07T08:06:02.353Z,7.76
2018-03-07T08:08:32.641Z,7.75
2018-03-07T08:11:04.814Z,8.00
2018-03-07T08:13:35.252Z,7.93
2018-03-07T08:16:05.910Z,7.48
2018-03-07T08:18:36.066Z,7.73
2018-03-07T08:21:06.189Z,7.73
2018-03-07T08:23:36.231Z,8.07
2018-03-07T08:26:06.363Z,8.30
2018-03-07T08:28:36.248Z,8.58
2018-03-07T08:31:06.652Z,8.67
2018-03-07T08:33:36.134Z,8.89
2018-03-07T08:36:06.689Z,8.82
2018-03-07T08:38:36.585Z,9.01
2018-03-07T08:41:06.412Z,9.05
2018-03-07T08:43:36.842Z,9.09
2018-03-07T08:46:06.743Z,9.24
2018-03-07T08:48:36.655Z,9.05
2018-03-07T08:51:06.968Z,9.05
2018-03-07T08:53:36.742Z,9.14
2018-03-07T08:56:07.432Z,9.32
2018-03-07T08:58:37.524Z,9.26
2018-03-07T09:01:07.588Z,9.37
2018-03-07T09:03:37.381Z,9.25
2018-03-07T09:06:07.452Z,9.21
2018-03-07T09:08:36.836Z,9.23
2018-03-07T09:11:06.678Z,9.23
2018-03-07T09:13:36.941Z,9.14
2018-03-07T09:16:06.764Z,9.29
2018-03-07T09:18:36.198Z,9.48
2018-03-07T09:21:05.762Z,9.81
2018-03-07T09:23:35.468Z,9.80
2018-03-07T09:26:06.320Z,9.75
2018-03-07T09:28:36.616Z,9.91
2018-03-07T09:31:06.648Z,9.95
2018-03-07T09:33:36.323Z,9.81
2018-03-07T09:36:06.604Z,9.89
2018-03-07T09:38:36.072Z,10.55
2018-03-07T09:41:07.043Z,10.47
2018-03-07T09:43:36.483Z,10.66
2018-03-07T09:46:06.105Z,10.54
2018-03-07T09:48:36.448Z,10.75
2018-03-07T09:51:06.524Z,11.05
2018-03-07T09:53:36.244Z,10.95
2018-03-07T09:56:06.531Z,10.94
2018-03-07T09:58:36.062Z,10.99
2018-03-07T10:01:06.481Z,10.97
2018-03-07T10:03:36.551Z,11.81
2018-03-07T10:06:07.781Z,12.17
2018-03-07T10:08:37.603Z,12.42
2018-03-07T10:11:08.224Z,12.57
2018-03-07T10:13:38.077Z,12.55
2018-03-07T10:16:09.304Z,13.13
2018-03-07T10:18:39.474Z,13.40
2018-03-07T10:21:08.974Z,13.38
2018-03-07T10:23:38.824Z,13.02
2018-03-07T10:26:08.702Z,12.40
2018-03-07T10:28:38.383Z,12.03
2018-03-07T10:31:09.502Z,12.00
2018-03-07T10:33:39.778Z,11.74
2018-03-07T10:36:10.514Z,12.29
2018-03-07T10:38:39.968Z,12.55
2018-03-07T10:41:11.029Z,12.74
2018-03-07T10:43:40.927Z,12.74
2018-03-07T10:46:10.760Z,12.67
2018-03-07T10:48:41.146Z,12.51
2018-03-07T10:51:11.442Z,12.74
2018-03-07T10:53:41.003Z,13.27
2018-03-07T10:56:18.610Z,13.26
2018-03-07T10:58:48.957Z,13.12
2018-03-07T11:01:19.986Z,12.77
2018-03-07T11:03:50.254Z,12.50
2018-03-07T11:06:20.031Z,12.60
2018-03-07T11:08:50.667Z,12.83
2018-03-07T11:11:20.299Z,12.43
2018-03-07T11:13:49.791Z,11.96
2018-03-07T11:16:19.669Z,11.88
2018-03-07T11:18:49.254Z,11.60
2018-03-07T11:21:18.778Z,11.91
2018-03-07T11:23:49.883Z,12.18
2018-03-07T11:26:20.723Z,12.47
2018-03-07T11:28:50.822Z,12.51
2018-03-07T11:31:21.306Z,12.38
2018-03-07T11:33:51.252Z,12.38
2018-03-07T11:36:20.941Z,12.37
2018-03-07T11:38:50.808Z,12.83
2018-03-07T11:41:20.330Z,13.08
2018-03-07T11:43:51.372Z,12.88
2018-03-07T11:46:21.539Z,12.13
2018-03-07T11:48:51.274Z,11.91
2018-03-07T11:51:21.683Z,11.69
2018-03-07T11:53:51.963Z,11.66
2018-03-07T11:56:22.511Z,12.01
2018-03-07T11:58:52.408Z,12.57
2018-03-07T12:01:22.566Z,12.77
2018-03-07T12:03:53.415Z,12.92
2018-03-07T12:06:23.409Z,13.33
2018-03-07T12:08:53.347Z,14.03
2018-03-07T12:11:29.278Z,14.41
2018-03-07T12:13:59.333Z,14.65
2018-03-07T12:16:30.092Z,14.64
2018-03-07T12:18:59.786Z,14.15
2018-03-07T12:21:29.624Z,14.08
2018-03-07T12:23:59.513Z,14.27
2018-03-07T12:26:30.708Z,14.31
2018-03-07T12:29:03.155Z,14.30
2018-03-07T12:32:35.932Z,13.82
2018-03-07T12:35:08.864Z,13.39
2018-03-07T12:38:33.730Z,13.10
2018-03-07T13:56:20.472Z,13.13
2018-03-07T13:58:51.302Z,12.98
2018-03-07T14:01:21.605Z,13.44
2018-03-07T14:03:52.450Z,13.66
2018-03-07T14:06:23.603Z,13.39
2018-03-07T14:08:55.391Z,13.53
2018-03-07T14:11:25.571Z,13.54
2018-03-07T14:13:56.308Z,13.29
2018-03-07T14:16:26.692Z,13.05
2018-03-07T14:18:56.975Z,12.95
2018-03-07T14:21:26.890Z,12.66
2018-03-07T14:23:57.152Z,12.32
2018-03-07T14:26:26.906Z,12.07
2018-03-07T14:28:57.419Z,12.04
2018-03-07T14:31:27.299Z,12.32
2018-03-07T14:33:57.182Z,12.04
2018-03-07T14:36:26.885Z,11.68
2018-03-07T14:38:56.385Z,11.26
2018-03-07T14:41:26.327Z,10.96
2018-03-07T14:43:55.905Z,10.99
2018-03-07T14:46:26.879Z,11.31
2018-03-07T14:48:56.826Z,11.60
2018-03-07T14:51:27.071Z,11.30
2018-03-07T14:53:57.148Z,11.19
2018-03-07T14:56:27.707Z,10.99
2018-03-07T14:58:58.444Z,10.87
2018-03-07T15:01:28.214Z,10.82
2018-03-07T15:03:57.808Z,10.94
2018-03-07T15:06:27.573Z,10.93
2018-03-07T15:08:57.551Z,10.80
2018-03-07T15:11:28.652Z,11.17
2018-03-07T15:13:58.106Z,11.03
2018-03-07T15:16:28.073Z,11.09
2018-03-07T15:18:57.657Z,11.55
2018-03-07T15:21:28.686Z,11.54
2018-03-07T15:23:58.626Z,11.36
2018-03-07T15:26:29.662Z,11.29
2018-03-07T15:28:59.477Z,11.46
2018-03-07T15:31:30.494Z,11.68
2018-03-07T15:34:00.894Z,11.53
2018-03-07T15:36:30.636Z,11.55
2018-03-07T15:39:00.311Z,11.48
2018-03-07T15:41:30.426Z,11.45
2018-03-07T15:44:00.574Z,11.62
2018-03-07T15:46:33.817Z,11.34
2018-03-07T15:49:04.645Z,11.09
2018-03-07T15:51:34.532Z,11.07
2018-03-07T15:54:09.366Z,10.85
2018-03-07T15:56:39.233Z,10.83
2018-03-07T15:59:08.921Z,11.17
2018-03-07T16:01:38.630Z,11.09
2018-03-07T16:04:08.110Z,10.89
2018-03-07T16:06:37.630Z,10.88
2018-03-07T16:09:07.892Z,10.77
2018-03-07T16:11:37.856Z,10.82
2018-03-07T16:14:07.540Z,10.94
2018-03-07T16:16:37.332Z,10.71
2018-03-07T16:19:06.770Z,10.63
2018-03-07T16:21:36.444Z,10.73
2018-03-07T16:24:06.439Z,10.77
2018-03-07T16:26:35.894Z,10.69
2018-03-07T16:29:06.516Z,10.48
2018-03-07T16:31:36.239Z,10.77
2018-03-07T16:34:07.336Z,10.87
2018-03-07T16:36:37.057Z,10.70
2018-03-07T16:39:06.770Z,10.74
2018-03-07T16:41:36.230Z,10.74
2018-03-07T16:44:10.301Z,10.41
2018-03-07T16:46:40.233Z,10.52
2018-03-07T16:49:09.683Z,10.49
2018-03-07T16:51:39.475Z,10.52
2018-03-07T16:54:09.120Z,10.23
2018-03-07T16:56:38.512Z,10.26
2018-03-07T16:59:08.050Z,10.18
2018-03-07T17:01:37.658Z,10.27
2018-03-07T17:04:08.447Z,10.05
2018-03-07T17:06:38.857Z,9.88
2018-03-07T17:09:08.662Z,9.87
2018-03-07T17:11:38.375Z,10.08
2018-03-07T17:14:09.410Z,9.87
2018-03-07T17:16:38.980Z,9.36
2018-03-07T17:19:09.132Z,9.56
2018-03-07T17:21:39.597Z,9.68
2018-03-07T17:24:10.036Z,9.54
2018-03-07T17:26:39.692Z,9.52
2018-03-07T17:29:09.308Z,9.52
2018-03-07T17:31:38.829Z,9.37
2018-03-07T17:34:08.316Z,9.13
2018-03-07T17:36:37.911Z,9.20
2018-03-07T17:39:07.397Z,9.14
2018-03-07T17:41:37.342Z,9.06
2018-03-07T17:44:07.443Z,9.05
2018-03-07T17:46:36.969Z,9.04
2018-03-07T17:49:06.465Z,9.03
2018-03-07T17:51:36.122Z,9.33
2018-03-07T17:54:06.509Z,9.57
2018-03-07T17:56:36.418Z,9.69
2018-03-07T17:59:05.911Z,9.52
2018-03-07T18:01:35.401Z,9.87
2018-03-07T18:04:08.901Z,9.79
2018-03-07T18:06:38.905Z,9.67
2018-03-07T18:09:08.858Z,9.57
2018-03-07T18:11:38.419Z,9.27
2018-03-07T18:14:08.103Z,9.43
2018-03-07T18:16:50.106Z,9.41
2018-03-07T18:19:19.992Z,9.57
2018-03-07T18:21:50.356Z,9.77
2018-03-07T18:24:19.983Z,9.50
2018-03-07T18:26:49.576Z,9.40
2018-03-07T18:29:19.680Z,9.21
2018-03-07T18:31:49.187Z,9.13
2018-03-07T18:34:18.730Z,8.75
2018-03-07T18:36:48.807Z,8.37
2018-03-07T18:39:18.436Z,8.93
2018-03-07T18:41:48.080Z,8.76
2018-03-07T18:44:18.202Z,8.76
2018-03-07T18:46:49.743Z,8.69
2018-03-07T18:49:19.548Z,8.66
2018-03-07T18:51:49.624Z,8.48
2018-03-07T18:54:19.480Z,8.32
2018-03-07T18:56:50.080Z,8.67
2018-03-07T18:59:22.441Z,8.66
2018-03-07T19:01:56.034Z,8.78
2018-03-07T19:04:25.507Z,8.51
2018-03-07T19:06:55.474Z,8.27
2018-03-07T19:09:25.366Z,8.24
2018-03-07T19:11:55.202Z,8.21
2018-03-07T19:14:27.416Z,8.17
2018-03-07T19:16:57.268Z,7.99
2018-03-07T19:19:27.096Z,7.95
2018-03-07T19:21:58.467Z,7.93
2018-03-07T19:24:31.235Z,7.84
2018-03-07T19:27:04.354Z,7.86
2018-03-07T19:29:38.144Z,8.04
2018-03-07T19:32:10.083Z,7.93
2018-03-07T19:34:43.474Z,8.22
2018-03-07T19:37:13.118Z,8.30
2018-03-07T19:39:44.038Z,7.87
2018-03-07T19:42:14.584Z,8.18
2018-03-07T19:44:44.496Z,8.24
2018-03-07T19:47:14.713Z,8.11
2018-03-07T19:49:44.321Z,8.23
2018-03-07T19:52:14.710Z,8.37
2018-03-07T19:54:44.567Z,8.28
2018-03-07T19:57:14.864Z,8.26
2018-03-07T19:59:44.447Z,8.82
2018-03-07T20:02:14.107Z,9.09
2018-03-07T20:04:44.000Z,8.93
2018-03-07T20:07:13.894Z,9.13
2018-03-07T20:09:43.766Z,9.16
2018-03-07T20:12:15.824Z,9.02
2018-03-07T20:14:48.180Z,9.00
2018-03-07T20:17:18.085Z,9.15
2018-03-07T20:19:48.739Z,9.36
2018-03-07T20:22:19.629Z,9.36
2018-03-07T20:24:49.278Z,9.45
2018-03-07T20:27:19.602Z,9.48
2018-03-07T20:29:50.819Z,9.65
2018-03-07T20:32:21.388Z,9.65
2018-03-07T20:34:50.927Z,9.52
2018-03-07T20:37:21.801Z,9.66
2018-03-07T20:39:52.144Z,9.62
2018-03-07T20:42:21.617Z,9.47
2018-03-07T20:44:52.255Z,9.48
2018-03-07T20:47:22.506Z,9.50
2018-03-07T20:49:52.134Z,9.60
2018-03-07T20:52:21.955Z,9.60
2018-03-07T20:54:51.866Z,9.62
2018-03-07T20:57:21.871Z,9.45
2018-03-07T20:59:51.385Z,9.50
2018-03-07T21:02:21.671Z,9.43
2018-03-07T21:04:51.156Z,9.38
2018-03-07T21:07:21.053Z,9.23
2018-03-07T21:09:51.293Z,9.25
2018-03-07T21:12:20.873Z,9.07
2018-03-07T21:14:50.758Z,8.86
2018-03-07T21:17:20.942Z,8.89
2018-03-07T21:19:51.069Z,8.77
2018-03-07T21:22:21.114Z,8.80
2018-03-07T21:24:51.647Z,8.74
2018-03-07T21:27:21.193Z,8.65
2018-03-07T21:29:50.717Z,8.48
2018-03-07T21:32:20.871Z,8.35
2018-03-07T21:34:50.545Z,8.31
2018-03-07T21:37:20.805Z,7.95
2018-03-07T21:39:51.461Z,8.07
2018-03-07T21:42:21.544Z,8.17
2018-03-07T21:44:51.235Z,8.14
2018-03-07T21:47:21.353Z,8.03
2018-03-07T21:49:51.564Z,8.25
2018-03-07T21:52:20.997Z,8.25
2018-03-07T21:54:50.740Z,8.33
2018-03-07T21:57:20.587Z,8.36
2018-03-07T21:59:50.570Z,8.26
2018-03-07T22:02:20.509Z,8.49
2018-03-07T22:04:50.311Z,8.36
2018-03-07T22:07:19.866Z,8.17
2018-03-07T22:09:49.582Z,8.24
2018-03-07T22:12:19.738Z,8.34
2018-03-07T22:14:49.444Z,8.51
2018-03-07T22:17:19.249Z,8.48
2018-03-07T22:19:48.946Z,8.64
2018-03-07T22:22:18.422Z,8.71
2018-03-07T22:24:48.645Z,8.58
2018-03-07T22:27:19.011Z,8.42
2018-03-07T22:29:48.612Z,8.63
2018-03-07T22:32:18.368Z,8.52
2018-03-07T22:34:47.913Z,8.64
2018-03-07T22:37:17.407Z,8.80
2018-03-07T22:39:48.127Z,8.69
2018-03-07T22:42:17.910Z,8.52
2018-03-07T22:44:47.623Z,8.60
2018-03-07T22:47:19.737Z,8.45
2018-03-07T22:49:49.949Z,8.45
2018-03-07T22:52:19.704Z,8.51
2018-03-07T22:54:49.636Z,8.48
2018-03-07T22:57:19.608Z,8.43
2018-03-07T22:59:49.618Z,8.62
2018-03-07T23:02:20.198Z,8.66
2018-03-07T23:04:50.139Z,8.79
2018-03-07T23:07:19.815Z,8.63
2018-03-07T23:09:50.567Z,8.36
2018-03-07T23:12:22.270Z,8.11
2018-03-07T23:14:53.038Z,8.52
2018-03-07T23:17:23.012Z,8.44
2018-03-07T23:19:52.936Z,8.09
2018-03-07T23:22:22.771Z,7.90
2018-03-07T23:24:53.753Z,8.35
2018-03-07T23:27:23.614Z,8.50
2018-03-07T23:29:54.133Z,8.48
2018-03-07T23:32:24.232Z,8.52
2018-03-07T23:34:56.684Z,8.21
2018-03-07T23:37:26.879Z,8.16
2018-03-07T23:39:56.980Z,8.13
2018-03-07T23:42:26.923Z,7.99
2018-03-07T23:44:56.971Z,8.21
2018-03-07T23:47:27.750Z,8.10
2018-03-07T23:49:57.447Z,7.94
2018-03-07T23:52:27.158Z,7.99
2018-03-07T23:54:57.298Z,8.08
2018-03-07T23:57:27.809Z,7.81
2018-03-07T23:59:58.046Z,7.84
